Airfield :
LOGIN :

Register | Disclaimer

   EN    FR    IT 

 










Legend :    VFR   Marginal VFR   IFR   Intensive IFR   Very Intensive IFR
Visi :
Ceiling :
>= 8 km
>= 3000ft
5 to 8 km
1000 to 3000 ft
1500m to 5 km
500 to 1000 ft
800 to 1500m
200 to 500 ft
< 800m
< 200 ft
Symbols :   Thunderstorms  Fog  Heavy snow  Heavy precipitations  Wind > 20 kt
SIGMETs :     Misc.  Thunderstorms  Icing  Turbulence  Mountain Waves  Volcanic Ashes







- Airport Elevation : 1043 ft
- IATA code : SLD


LZSL - Sliac

CURRENT METAR :
  • 111300Z 24005KT 210V280 9999 FEW020 BKN040 03/M00 Q1011

EXPIRED METARs :
  • 111230Z 24005KT 9999 FEW023 BKN036 03/M01 Q1011
  • 111200Z 23006KT 9999 FEW023 BKN036 03/M01 Q1011
  • 111130Z 23006KT 9999 FEW023 BKN036 04/M00 Q1011
  • 111100Z 22006KT 9999 FEW023 BKN033 03/00 Q1011
  • 111030Z 21005KT 9999 FEW023 BKN033 02/M00 Q1011
  • 111000Z 22007KT 9999 SCT023 BKN046 03/00 Q1011

TAF TAF LZSL
Valid from the 11 at 12:00 until the 11 at 21:00 UTC


111100Z 1112/1121 VRB02KT 9999 SCT020 BKN036
TEMPO 1112/1114 21008KT -SHSN BKN020
TEMPO 1114/1119 2500 -SN SCT003 OVC009
No reported NOTAMs for that airfield.



MET'MAP, your aeronautical weather chart ! - Copyright ORBIFLY December 2007 - Disclaimer

ORBIFLY MET'MAP TEAM :

Programming & Development : Alexandra Zaïnal
Concept & Development : Baudouin d'Aumeries
Co-Development & Prog : Marc-Olivier Méhu
Technical & hardware support : Manuel Goepfert

Contact : metmap@orbifly.com




SOURCES & CREDITS :

   NOAA